sensor_id;sensor_type;location;lat;lon;timestamp;pressure;altitude;pressure_sealevel;temperature;humidity
69318;BME280;56457;52.190;4.440;2023-03-04T00:00:47;102838.88;;;6.30;100.00
69318;BME280;56457;52.190;4.440;2023-03-04T00:01:47;102844.97;;;6.31;100.00
69318;BME280;56457;52.190;4.440;2023-03-04T00:02:49;102838.94;;;6.32;100.00
69318;BME280;56457;52.190;4.440;2023-03-04T00:03:49;102850.38;;;6.35;100.00
69318;BME280;56457;52.190;4.440;2023-03-04T00:04:49;102846.94;;;6.36;100.00
69318;BME280;56457;52.190;4.440;2023-03-04T00:05:50;102851.34;;;6.37;100.00
69318;BME280;56457;52.190;4.440;2023-03-04T00:06:50;102842.00;;;6.42;100.00
69318;BME280;56457;52.190;4.440;2023-03-04T00:07:50;102844.59;;;6.42;100.00
69318;BME280;56457;52.190;4.440;2023-03-04T00:08:51;102848.03;;;6.41;100.00
69318;BME280;56457;52.190;4.440;2023-03-04T00:09:51;102847.31;;;6.45;100.00
69318;BME280;56457;52.190;4.440;2023-03-04T00:10:51;102857.50;;;6.39;100.00
69318;BME280;56457;52.190;4.440;2023-03-04T00:11:51;102848.78;;;6.39;100.00
69318;BME280;56457;52.190;4.440;2023-03-04T00:12:52;102848.03;;;6.41;100.00
69318;BME280;56457;52.190;4.440;2023-03-04T00:13:52;102851.53;;;6.42;100.00
69318;BME280;56457;52.190;4.440;2023-03-04T00:14:52;102853.06;;;6.37;100.00
69318;BME280;56457;52.190;4.440;2023-03-04T00:15:53;102849.66;;;6.39;100.00
69318;BME280;56457;52.190;4.440;2023-03-04T00:16:53;102840.47;;;6.47;100.00
69318;BME280;56457;52.190;4.440;2023-03-04T00:17:53;102841.34;;;6.48;100.00
69318;BME280;56457;52.190;4.440;2023-03-04T00:18:54;102843.06;;;6.47;100.00
69318;BME280;56457;52.190;4.440;2023-03-04T00:19:54;102846.44;;;6.45;100.00
69318;BME280;56457;52.190;4.440;2023-03-04T00:20:55;102836.00;;;6.45;100.00
69318;BME280;56457;52.190;4.440;2023-03-04T00:21:55;102840.97;;;6.39;100.00
69318;BME280;56457;52.190;4.440;2023-03-04T00:22:56;102846.91;;;6.35;100.00
69318;BME280;56457;52.190;4.440;2023-03-04T00:23:56;102851.13;;;6.33;100.00
69318;BME280;56457;52.190;4.440;2023-03-04T00:24:56;102852.16;;;6.36;100.00
69318;BME280;56457;52.190;4.440;2023-03-04T00:25:57;102849.66;;;6.39;100.00
69318;BME280;56457;52.190;4.440;2023-03-04T00:26:57;102850.38;;;6.35;100.00
69318;BME280;56457;52.190;4.440;2023-03-04T00:27:57;102843.50;;;6.37;100.00
69318;BME280;56457;52.190;4.440;2023-03-04T00:28:58;102850.38;;;6.35;100.00
69318;BME280;56457;52.190;4.440;2023-03-04T00:29:58;102846.69;;;6.30;100.00
69318;BME280;56457;52.190;4.440;2023-03-04T00:30:58;102840.59;;;6.30;100.00
69318;BME280;56457;52.190;4.440;2023-03-04T00:31:59;102843.50;;;6.37;100.00
69318;BME280;56457;52.190;4.440;2023-03-04T00:32:59;102842.50;;;6.34;100.00
69318;BME280;56457;52.190;4.440;2023-03-04T00:33:59;102842.56;;;6.35;100.00
69318;BME280;56457;52.190;4.440;2023-03-04T00:34:59;102847.72;;;6.34;100.00
69318;BME280;56457;52.190;4.440;2023-03-04T00:36:00;102840.69;;;6.33;100.00
69318;BME280;56457;52.190;4.440;2023-03-04T00:37:00;102843.44;;;6.36;100.00
69318;BME280;56457;52.190;4.440;2023-03-04T00:38:02;102842.75;;;6.40;100.00
69318;BME280;56457;52.190;4.440;2023-03-04T00:39:02;102846.25;;;6.40;100.00
69318;BME280;56457;52.190;4.440;2023-03-04T00:40:03;102842.81;;;6.41;100.00
69318;BME280;56457;52.190;4.440;2023-03-04T00:41:03;102842.88;;;6.43;100.00
69318;BME280;56457;52.190;4.440;2023-03-04T00:42:04;102844.59;;;6.42;100.00
69318;BME280;56457;52.190;4.440;2023-03-04T00:43:04;102841.94;;;6.41;100.00
69318;BME280;56457;52.190;4.440;2023-03-04T00:44:04;102838.19;;;6.34;100.00
69318;BME280;56457;52.190;4.440;2023-03-04T00:45:05;102843.50;;;6.37;100.00
69318;BME280;56457;52.190;4.440;2023-03-04T00:46:05;102833.22;;;6.40;100.00
69318;BME280;56457;52.190;4.440;2023-03-04T00:47:06;102835.19;;;6.46;100.00
69318;BME280;56457;52.190;4.440;2023-03-04T00:48:06;102834.16;;;6.42;100.00
69318;BME280;56457;52.190;4.440;2023-03-04T00:49:06;102843.75;;;6.43;100.00
69318;BME280;56457;52.190;4.440;2023-03-04T00:50:07;102832.44;;;6.43;100.00
69318;BME280;56457;52.190;4.440;2023-03-04T00:51:07;102847.31;;;6.45;100.00
69318;BME280;56457;52.190;4.440;2023-03-04T00:52:08;102846.38;;;6.43;100.00
69318;BME280;56457;52.190;4.440;2023-03-04T00:53:08;102842.00;;;6.42;100.00
69318;BME280;56457;52.190;4.440;2023-03-04T00:54:09;102836.81;;;6.44;100.00
69318;BME280;56457;52.190;4.440;2023-03-04T00:55:09;102835.88;;;6.42;100.00
69318;BME280;56457;52.190;4.440;2023-03-04T00:56:09;102840.31;;;6.44;100.00
69318;BME280;56457;52.190;4.440;2023-03-04T00:57:10;102837.72;;;6.44;100.00
69318;BME280;56457;52.190;4.440;2023-03-04T00:58:10;102838.84;;;6.51;100.00
69318;BME280;56457;52.190;4.440;2023-03-04T00:59:10;102842.34;;;6.52;100.00
69318;BME280;56457;52.190;4.440;2023-03-04T01:00:11;102844.00;;;6.50;100.00
69318;BME280;56457;52.190;4.440;2023-03-04T01:01:11;102838.75;;;6.48;100.00
69318;BME280;56457;52.190;4.440;2023-03-04T01:02:11;102848.03;;;6.41;100.00
69318;BME280;56457;52.190;4.440;2023-03-04T01:03:12;102838.69;;;6.46;100.00
69318;BME280;56457;52.190;4.440;2023-03-04T01:04:12;102844.94;;;6.52;100.00
69318;BME280;56457;52.190;4.440;2023-03-04T01:05:13;102843.44;;;6.57;100.00
69318;BME280;56457;52.190;4.440;2023-03-04T01:06:14;102842.59;;;6.58;100.00
69318;BME280;56457;52.190;4.440;2023-03-04T01:07:14;102844.84;;;6.48;100.00
69318;BME280;56457;52.190;4.440;2023-03-04T01:08:14;102836.13;;;6.48;100.00
69318;BME280;56457;52.190;4.440;2023-03-04T01:09:14;102846.44;;;6.45;100.00
69318;BME280;56457;52.190;4.440;2023-03-04T01:10:15;102844.59;;;6.42;100.00
69318;BME280;56457;52.190;4.440;2023-03-04T01:11:15;102846.31;;;6.42;100.00
69318;BME280;56457;52.190;4.440;2023-03-04T01:12:15;102840.06;;;6.38;100.00
69318;BME280;56457;52.190;4.440;2023-03-04T01:13:16;102845.91;;;6.33;100.00
69318;BME280;56457;52.190;4.440;2023-03-04T01:14:16;102844.09;;;6.30;100.00
69318;BME280;56457;52.190;4.440;2023-03-04T01:15:17;102846.00;;;6.34;100.00
69318;BME280;56457;52.190;4.440;2023-03-04T01:16:17;102835.84;;;6.40;100.00
69318;BME280;56457;52.190;4.440;2023-03-04T01:17:17;102833.47;;;6.46;100.00
69318;BME280;56457;52.190;4.440;2023-03-04T01:18:18;102838.53;;;6.43;100.00
69318;BME280;56457;52.190;4.440;2023-03-04T01:19:18;102835.88;;;6.42;100.00
69318;BME280;56457;52.190;4.440;2023-03-04T01:20:18;102840.97;;;6.39;100.00
69318;BME280;56457;52.190;4.440;2023-03-04T01:21:19;102840.16;;;6.40;100.00
69318;BME280;56457;52.190;4.440;2023-03-04T01:22:19;102841.84;;;6.39;100.00
69318;BME280;56457;52.190;4.440;2023-03-04T01:23:20;102838.28;;;6.37;100.00
69318;BME280;56457;52.190;4.440;2023-03-04T01:24:20;102842.50;;;6.34;100.00
69318;BME280;56457;52.190;4.440;2023-03-04T01:25:20;102833.78;;;6.33;100.00
69318;BME280;56457;52.190;4.440;2023-03-04T01:26:20;102832.09;;;6.34;100.00
69318;BME280;56457;52.190;4.440;2023-03-04T01:27:21;102824.31;;;6.35;100.00
69318;BME280;56457;52.190;4.440;2023-03-04T01:28:21;102834.69;;;6.34;100.00
69318;BME280;56457;52.190;4.440;2023-03-04T01:29:21;102826.78;;;6.32;100.00
69318;BME280;56457;52.190;4.440;2023-03-04T01:30:22;102830.22;;;6.31;100.00
69318;BME280;56457;52.190;4.440;2023-03-04T01:31:22;102828.66;;;6.35;100.00
69318;BME280;56457;52.190;4.440;2023-03-04T01:32:22;102821.00;;;6.39;100.00
69318;BME280;56457;52.190;4.440;2023-03-04T01:33:23;102833.97;;;6.38;100.00
69318;BME280;56457;52.190;4.440;2023-03-04T01:34:23;102823.53;;;6.38;100.00
69318;BME280;56457;52.190;4.440;2023-03-04T01:35:23;102817.44;;;6.37;100.00
69318;BME280;56457;52.190;4.440;2023-03-04T01:36:23;102817.44;;;6.37;100.00
69318;BME280;56457;52.190;4.440;2023-03-04T01:37:24;102823.53;;;6.38;100.00
69318;BME280;56457;52.190;4.440;2023-03-04T01:38:24;102823.28;;;6.53;100.00
69318;BME280;56457;52.190;4.440;2023-03-04T01:39:24;102822.41;;;6.52;100.00
69318;BME280;56457;52.190;4.440;2023-03-04T01:40:25;102815.22;;;6.46;100.00
69318;BME280;56457;52.190;4.440;2023-03-04T01:41:26;102821.91;;;6.40;100.00
69318;BME280;56457;52.190;4.440;2023-03-04T01:42:26;102824.44;;;6.38;100.00
69318;BME280;56457;52.190;4.440;2023-03-04T01:43:29;102812.28;;;6.39;100.00
69318;BME280;56457;52.190;4.440;2023-03-04T01:44:29;102812.22;;;6.37;100.00
69318;BME280;56457;52.190;4.440;2023-03-04T01:45:29;102813.06;;;6.36;100.00
69318;BME280;56457;52.190;4.440;2023-03-04T01:46:31;102810.50;;;6.38;100.00
69318;BME280;56457;52.190;4.440;2023-03-04T01:47:32;102813.09;;;6.38;100.00
69318;BME280;56457;52.190;4.440;2023-03-04T01:48:35;102812.13;;;6.34;100.00
69318;BME280;56457;52.190;4.440;2023-03-04T01:49:36;102814.97;;;6.40;100.00
69318;BME280;56457;52.190;4.440;2023-03-04T01:50:36;102806.50;;;6.46;100.00
69318;BME280;56457;52.190;4.440;2023-03-04T01:51:37;102802.00;;;6.42;100.00
69318;BME280;56457;52.190;4.440;2023-03-04T01:52:37;102799.19;;;6.37;100.00
69318;BME280;56457;52.190;4.440;2023-03-04T01:53:38;102803.50;;;6.37;100.00
69318;BME280;56457;52.190;4.440;2023-03-04T01:54:39;102795.59;;;6.34;100.00
69318;BME280;56457;52.190;4.440;2023-03-04T01:55:39;102808.53;;;6.32;100.00
69318;BME280;56457;52.190;4.440;2023-03-04T01:56:40;102795.63;;;6.35;100.00
69318;BME280;56457;52.190;4.440;2023-03-04T01:57:40;102799.06;;;6.34;100.00
69318;BME280;56457;52.190;4.440;2023-03-04T01:58:40;102798.50;;;6.41;100.00
69318;BME280;56457;52.190;4.440;2023-03-04T01:59:41;102800.72;;;6.32;100.00
69318;BME280;56457;52.190;4.440;2023-03-04T02:00:41;102797.22;;;6.32;100.00
69318;BME280;56457;52.190;4.440;2023-03-04T02:01:46;102795.34;;;6.28;100.00
69318;BME280;56457;52.190;4.440;2023-03-04T02:02:47;102793.66;;;6.30;100.00
69318;BME280;56457;52.190;4.440;2023-03-04T02:03:48;102789.78;;;6.41;100.00
69318;BME280;56457;52.190;4.440;2023-03-04T02:04:49;102781.19;;;6.43;100.00
69318;BME280;56457;52.190;4.440;2023-03-04T02:05:50;102780.44;;;6.46;100.00
69318;BME280;56457;52.190;4.440;2023-03-04T02:06:51;102782.06;;;6.44;100.00
69318;BME280;56457;52.190;4.440;2023-03-04T02:07:51;102780.28;;;6.43;100.00
69318;BME280;56457;52.190;4.440;2023-03-04T02:08:52;102782.84;;;6.41;100.00
69318;BME280;56457;52.190;4.440;2023-03-04T02:09:52;102781.06;;;6.40;100.00
69318;BME280;56457;52.190;4.440;2023-03-04T02:10:52;102780.00;;;6.35;100.00
69318;BME280;56457;52.190;4.440;2023-03-04T02:11:53;102773.16;;;6.39;100.00
69318;BME280;56457;52.190;4.440;2023-03-04T02:12:53;102779.03;;;6.33;100.00
69318;BME280;56457;52.190;4.440;2023-03-04T02:13:54;102771.03;;;6.29;100.00
69318;BME280;56457;52.190;4.440;2023-03-04T02:14:54;102775.38;;;6.28;100.00
69318;BME280;56457;52.190;4.440;2023-03-04T02:15:54;102776.16;;;6.27;100.00
69318;BME280;56457;52.190;4.440;2023-03-04T02:16:55;102778.09;;;6.31;100.00
69318;BME280;56457;52.190;4.440;2023-03-04T02:17:55;102767.72;;;6.33;100.00
69318;BME280;56457;52.190;4.440;2023-03-04T02:18:56;102766.00;;;6.33;100.00
69318;BME280;56457;52.190;4.440;2023-03-04T02:21:14;102770.84;;;6.24;100.00
69318;BME280;56457;52.190;4.440;2023-03-04T02:22:18;102769.91;;;6.22;100.00
69318;BME280;56457;52.190;4.440;2023-03-04T02:24:35;102762.78;;;6.18;100.00
69318;BME280;56457;52.190;4.440;2023-03-04T02:25:40;102767.22;;;6.20;100.00
69318;BME280;56457;52.190;4.440;2023-03-04T02:26:42;102762.00;;;6.20;100.00
69318;BME280;56457;52.190;4.440;2023-03-04T02:27:43;102761.91;;;6.17;100.00
69318;BME280;56457;52.190;4.440;2023-03-04T02:28:44;102759.34;;;6.19;100.00
69318;BME280;56457;52.190;4.440;2023-03-04T02:29:44;102754.91;;;6.16;100.00
69318;BME280;56457;52.190;4.440;2023-03-04T02:30:45;102760.75;;;6.11;100.00
69318;BME280;56457;52.190;4.440;2023-03-04T02:31:49;102761.69;;;6.13;100.00
69318;BME280;56457;52.190;4.440;2023-03-04T02:32:50;102762.53;;;6.12;100.00
69318;BME280;56457;52.190;4.440;2023-03-04T02:33:51;102764.56;;;6.19;100.00
69318;BME280;56457;52.190;4.440;2023-03-04T02:34:51;102761.06;;;6.18;100.00
69318;BME280;56457;52.190;4.440;2023-03-04T02:35:52;102756.53;;;6.14;100.00
69318;BME280;56457;52.190;4.440;2023-03-04T02:36:52;102756.53;;;6.14;100.00
69318;BME280;56457;52.190;4.440;2023-03-04T02:37:53;102754.66;;;6.10;100.00
69318;BME280;56457;52.190;4.440;2023-03-04T02:38:53;102750.34;;;6.11;100.00
69318;BME280;56457;52.190;4.440;2023-03-04T02:39:54;102755.66;;;6.14;100.00
69318;BME280;56457;52.190;4.440;2023-03-04T02:40:54;102755.59;;;6.12;100.00
69318;BME280;56457;52.190;4.440;2023-03-04T02:41:55;102754.03;;;6.16;100.00
69318;BME280;56457;52.190;4.440;2023-03-04T02:42:57;102753.78;;;6.10;100.00
69318;BME280;56457;52.190;4.440;2023-03-04T02:43:57;102748.66;;;6.13;100.00
69318;BME280;56457;52.190;4.440;2023-03-04T02:44:58;102754.06;;;6.17;100.00
69318;BME280;56457;52.190;4.440;2023-03-04T02:45:59;102750.34;;;6.11;100.00
69318;BME280;56457;52.190;4.440;2023-03-04T02:46:59;102753.78;;;6.10;100.00
69318;BME280;56457;52.190;4.440;2023-03-04T02:48:00;102747.66;;;6.09;100.00
69318;BME280;56457;52.190;4.440;2023-03-04T02:49:00;102741.56;;;6.09;100.00
69318;BME280;56457;52.190;4.440;2023-03-04T02:50:00;102740.59;;;6.07;100.00
69318;BME280;56457;52.190;4.440;2023-03-04T02:51:00;102738.78;;;6.04;100.00
69318;BME280;56457;52.190;4.440;2023-03-04T02:52:05;102746.78;;;6.09;100.00
69318;BME280;56457;52.190;4.440;2023-03-04T02:53:06;102745.81;;;6.07;100.00
69318;BME280;56457;52.190;4.440;2023-03-04T02:54:24;102743.16;;;6.05;100.00
69318;BME280;56457;52.190;4.440;2023-03-04T02:55:24;102750.19;;;6.08;100.00
69318;BME280;56457;52.190;4.440;2023-03-04T02:56:24;102745.94;;;6.10;100.00
69318;BME280;56457;52.190;4.440;2023-03-04T02:57:25;102740.78;;;6.11;100.00
69318;BME280;56457;52.190;4.440;2023-03-04T02:58:25;102744.53;;;6.18;100.00
69318;BME280;56457;52.190;4.440;2023-03-04T02:59:25;102736.34;;;6.09;100.00
69318;BME280;56457;52.190;4.440;2023-03-04T03:00:26;102739.66;;;6.05;100.00
69318;BME280;56457;52.190;4.440;2023-03-04T03:01:27;102738.03;;;6.08;100.00
69318;BME280;56457;52.190;4.440;2023-03-04T03:02:27;102741.00;;;6.16;100.00
69318;BME280;56457;52.190;4.440;2023-03-04T03:03:28;102740.22;;;6.18;100.00
69318;BME280;56457;52.190;4.440;2023-03-04T03:04:28;102735.84;;;6.17;100.00
69318;BME280;56457;52.190;4.440;2023-03-04T03:05:29;102741.00;;;6.16;100.00
69318;BME280;56457;52.190;4.440;2023-03-04T03:06:30;102738.25;;;6.13;100.00
69318;BME280;56457;52.190;4.440;2023-03-04T03:07:30;102742.47;;;6.09;100.00
69318;BME280;56457;52.190;4.440;2023-03-04T03:08:31;102732.91;;;6.10;100.00
69318;BME280;56457;52.190;4.440;2023-03-04T03:09:31;102733.81;;;6.10;100.00
69318;BME280;56457;52.190;4.440;2023-03-04T03:10:32;102741.72;;;6.13;100.00
69318;BME280;56457;52.190;4.440;2023-03-04T03:11:32;102741.03;;;6.17;100.00
69318;BME280;56457;52.190;4.440;2023-03-04T03:12:33;102732.19;;;6.14;100.00
69318;BME280;56457;52.190;4.440;2023-03-04T03:13:33;102739.28;;;6.16;100.00
69318;BME280;56457;52.190;4.440;2023-03-04T03:14:34;102736.78;;;6.19;100.00
69318;BME280;56457;52.190;4.440;2023-03-04T03:15:34;102736.19;;;6.27;100.00
69318;BME280;56457;52.190;4.440;2023-03-04T03:16:34;102728.13;;;6.20;100.00
69318;BME280;56457;52.190;4.440;2023-03-04T03:17:35;102739.22;;;6.15;100.00
69318;BME280;56457;52.190;4.440;2023-03-04T03:18:35;102730.47;;;6.14;100.00
69318;BME280;56457;52.190;4.440;2023-03-04T03:19:35;102731.56;;;6.19;100.00
69318;BME280;56457;52.190;4.440;2023-03-04T03:20:36;102742.53;;;6.33;100.00
69318;BME280;56457;52.190;4.440;2023-03-04T03:21:36;102736.81;;;6.21;100.00
69318;BME280;56457;52.190;4.440;2023-03-04T03:22:36;102742.03;;;6.21;100.00
69318;BME280;56457;52.190;4.440;2023-03-04T03:23:37;102747.19;;;6.19;100.00
69318;BME280;56457;52.190;4.440;2023-03-04T03:24:37;102750.88;;;6.25;100.00
69318;BME280;56457;52.190;4.440;2023-03-04T03:25:37;102743.31;;;6.31;100.00
69318;BME280;56457;52.190;4.440;2023-03-04T03:26:38;102738.16;;;6.32;100.00
69318;BME280;56457;52.190;4.440;2023-03-04T03:27:39;102747.13;;;6.18;100.00
69318;BME280;56457;52.190;4.440;2023-03-04T03:28:39;102733.09;;;6.14;100.00
69318;BME280;56457;52.190;4.440;2023-03-04T03:29:39;102732.28;;;6.15;100.00
69318;BME280;56457;52.190;4.440;2023-03-04T03:30:40;102730.22;;;6.08;100.00
69318;BME280;56457;52.190;4.440;2023-03-04T03:31:40;102733.81;;;6.10;100.00
69318;BME280;56457;52.190;4.440;2023-03-04T03:32:40;102728.69;;;6.13;100.00
69318;BME280;56457;52.190;4.440;2023-03-04T03:33:41;102732.09;;;6.11;100.00
69318;BME280;56457;52.190;4.440;2023-03-04T03:34:41;102727.81;;;6.13;100.00
69318;BME280;56457;52.190;4.440;2023-03-04T03:35:41;102738.19;;;6.11;100.00
69318;BME280;56457;52.190;4.440;2023-03-04T03:36:41;102734.69;;;6.11;100.00
69318;BME280;56457;52.190;4.440;2023-03-04T03:37:42;102734.94;;;6.17;100.00
69318;BME280;56457;52.190;4.440;2023-03-04T03:38:42;102731.94;;;6.08;100.00
69318;BME280;56457;52.190;4.440;2023-03-04T03:39:42;102739.75;;;6.08;100.00
69318;BME280;56457;52.190;4.440;2023-03-04T03:40:43;102740.84;;;6.13;100.00
69318;BME280;56457;52.190;4.440;2023-03-04T03:41:43;102739.75;;;6.08;100.00
69318;BME280;56457;52.190;4.440;2023-03-04T03:42:43;102731.56;;;6.19;100.00
69318;BME280;56457;52.190;4.440;2023-03-04T03:43:44;102732.97;;;6.11;100.00
69318;BME280;56457;52.190;4.440;2023-03-04T03:44:44;102737.31;;;6.11;100.00
69318;BME280;56457;52.190;4.440;2023-03-04T03:45:44;102740.75;;;6.10;100.00
69318;BME280;56457;52.190;4.440;2023-03-04T03:46:44;102739.03;;;6.10;100.00
69318;BME280;56457;52.190;4.440;2023-03-04T03:47:45;102742.63;;;6.14;100.00
69318;BME280;56457;52.190;4.440;2023-03-04T03:48:46;102744.47;;;6.16;100.00
69318;BME280;56457;52.190;4.440;2023-03-04T03:49:46;102735.84;;;6.17;100.00
69318;BME280;56457;52.190;4.440;2023-03-04T03:50:46;102732.09;;;6.11;100.00
69318;BME280;56457;52.190;4.440;2023-03-04T03:51:47;102739.03;;;6.10;100.00
69318;BME280;56457;52.190;4.440;2023-03-04T03:52:47;102739.59;;;6.03;100.00
69318;BME280;56457;52.190;4.440;2023-03-04T03:53:47;102740.50;;;6.04;100.00
69318;BME280;56457;52.190;4.440;2023-03-04T03:54:48;102737.09;;;6.06;100.00
69318;BME280;56457;52.190;4.440;2023-03-04T03:55:48;102744.19;;;6.09;100.00
69318;BME280;56457;52.190;4.440;2023-03-04T03:56:48;102743.25;;;6.08;100.00
69318;BME280;56457;52.190;4.440;2023-03-04T03:57:48;102743.09;;;6.04;100.00
69318;BME280;56457;52.190;4.440;2023-03-04T03:58:49;102740.41;;;6.02;100.00
69318;BME280;56457;52.190;4.440;2023-03-04T03:59:49;102740.34;;;6.01;100.00
69318;BME280;56457;52.190;4.440;2023-03-04T04:00:49;102757.75;;;6.02;100.00
69318;BME280;56457;52.190;4.440;2023-03-04T04:01:49;102751.59;;;6.00;100.00
69318;BME280;56457;52.190;4.440;2023-03-04T04:02:50;102743.66;;;5.97;100.00
69318;BME280;56457;52.190;4.440;2023-03-04T04:03:51;102742.75;;;5.96;100.00
69318;BME280;56457;52.190;4.440;2023-03-04T04:04:51;102743.84;;;6.01;100.00
69318;BME280;56457;52.190;4.440;2023-03-04T04:05:52;102753.38;;;6.01;100.00
69318;BME280;56457;52.190;4.440;2023-03-04T04:06:52;102745.50;;;5.99;100.00
69318;BME280;56457;52.190;4.440;2023-03-04T04:07:52;102747.28;;;6.00;100.00
69318;BME280;56457;52.190;4.440;2023-03-04T04:08:53;102749.00;;;6.00;100.00
69318;BME280;56457;52.190;4.440;2023-03-04T04:09:53;102742.00;;;5.99;100.00
69318;BME280;56457;52.190;4.440;2023-03-04T04:10:54;102737.63;;;5.98;100.00
69318;BME280;56457;52.190;4.440;2023-03-04T04:11:54;102740.25;;;5.98;100.00
69318;BME280;56457;52.190;4.440;2023-03-04T04:12:55;102731.69;;;6.02;100.00
69318;BME280;56457;52.190;4.440;2023-03-04T04:13:58;102732.53;;;6.01;100.00
69318;BME280;56457;52.190;4.440;2023-03-04T04:14:58;102734.19;;;5.99;100.00
69318;BME280;56457;52.190;4.440;2023-03-04T04:15:59;102738.56;;;6.00;100.00
69318;BME280;56457;52.190;4.440;2023-03-04T04:16:59;102735.13;;;6.01;100.00
69318;BME280;56457;52.190;4.440;2023-03-04T04:18:00;102731.44;;;5.96;100.00
69318;BME280;56457;52.190;4.440;2023-03-04T04:19:00;102733.25;;;5.97;100.00
69318;BME280;56457;52.190;4.440;2023-03-04T04:20:00;102733.31;;;5.98;100.00
69318;BME280;56457;52.190;4.440;2023-03-04T04:21:00;102726.31;;;5.97;100.00
69318;BME280;56457;52.190;4.440;2023-03-04T04:22:01;102735.09;;;5.99;100.00
69318;BME280;56457;52.190;4.440;2023-03-04T04:23:02;102731.38;;;5.94;100.00
69318;BME280;56457;52.190;4.440;2023-03-04T04:24:02;102737.75;;;6.01;100.00
69318;BME280;56457;52.190;4.440;2023-03-04T04:25:02;102724.06;;;6.06;100.00
69318;BME280;56457;52.190;4.440;2023-03-04T04:26:04;102727.25;;;5.99;100.00
69318;BME280;56457;52.190;4.440;2023-03-04T04:27:04;102728.09;;;5.98;100.00
69318;BME280;56457;52.190;4.440;2023-03-04T04:28:04;102736.03;;;6.01;100.00
69318;BME280;56457;52.190;4.440;2023-03-04T04:29:05;102730.13;;;6.05;100.00
69318;BME280;56457;52.190;4.440;2023-03-04T04:30:06;102731.84;;;6.05;100.00
69318;BME280;56457;52.190;4.440;2023-03-04T04:31:07;102727.56;;;6.07;100.00
69318;BME280;56457;52.190;4.440;2023-03-04T04:32:08;102727.56;;;6.07;100.00
69318;BME280;56457;52.190;4.440;2023-03-04T04:33:08;102731.00;;;6.06;100.00
69318;BME280;56457;52.190;4.440;2023-03-04T04:34:11;102727.56;;;6.07;100.00
69318;BME280;56457;52.190;4.440;2023-03-04T04:35:12;102729.34;;;6.08;100.00
69318;BME280;56457;52.190;4.440;2023-03-04T04:36:13;102724.28;;;6.11;100.00
69318;BME280;56457;52.190;4.440;2023-03-04T04:37:16;102724.03;;;6.05;100.00
69318;BME280;56457;52.190;4.440;2023-03-04T04:38:16;102721.22;;;6.00;100.00
69318;BME280;56457;52.190;4.440;2023-03-04T04:39:17;102728.97;;;5.99;100.00
69318;BME280;56457;52.190;4.440;2023-03-04T04:40:18;102729.34;;;6.08;100.00
69318;BME280;56457;52.190;4.440;2023-03-04T04:41:19;102727.56;;;6.07;100.00
69318;BME280;56457;52.190;4.440;2023-03-04T04:42:20;102730.19;;;6.07;100.00
69318;BME280;56457;52.190;4.440;2023-03-04T04:43:21;102732.91;;;6.10;100.00
69318;BME280;56457;52.190;4.440;2023-03-04T04:44:21;102727.63;;;6.08;100.00
69318;BME280;56457;52.190;4.440;2023-03-04T04:45:22;102727.75;;;6.11;100.00
69318;BME280;56457;52.190;4.440;2023-03-04T04:46:24;102725.94;;;6.09;100.00
69318;BME280;56457;52.190;4.440;2023-03-04T04:47:25;102730.63;;;6.17;100.00
69318;BME280;56457;52.190;4.440;2023-03-04T04:48:25;102733.28;;;6.19;100.00
69318;BME280;56457;52.190;4.440;2023-03-04T04:49:25;102740.25;;;6.20;100.00
69318;BME280;56457;52.190;4.440;2023-03-04T04:50:26;102731.59;;;6.21;100.00
69318;BME280;56457;52.190;4.440;2023-03-04T04:51:26;102734.94;;;6.17;100.00
69318;BME280;56457;52.190;4.440;2023-03-04T04:52:26;102732.19;;;6.14;100.00
69318;BME280;56457;52.190;4.440;2023-03-04T04:53:27;102738.13;;;6.10;100.00
69318;BME280;56457;52.190;4.440;2023-03-04T04:54:27;102733.81;;;6.10;100.00
69318;BME280;56457;52.190;4.440;2023-03-04T04:55:28;102731.19;;;6.10;100.00
69318;BME280;56457;52.190;4.440;2023-03-04T04:56:28;102735.69;;;6.14;100.00
69318;BME280;56457;52.190;4.440;2023-03-04T04:57:29;102735.78;;;6.16;100.00
69318;BME280;56457;52.190;4.440;2023-03-04T04:58:29;102734.69;;;6.11;100.00
69318;BME280;56457;52.190;4.440;2023-03-04T04:59:29;102736.47;;;6.12;100.00
69318;BME280;56457;52.190;4.440;2023-03-04T05:00:30;102752.16;;;6.13;100.00
69318;BME280;56457;52.190;4.440;2023-03-04T05:01:30;102741.63;;;6.10;100.00
69318;BME280;56457;52.190;4.440;2023-03-04T05:02:31;102738.13;;;6.10;100.00
69318;BME280;56457;52.190;4.440;2023-03-04T05:03:35;102744.09;;;6.07;100.00
69318;BME280;56457;52.190;4.440;2023-03-04T05:04:36;102743.34;;;6.10;100.00
69318;BME280;56457;52.190;4.440;2023-03-04T05:05:36;102740.00;;;6.14;100.00
69318;BME280;56457;52.190;4.440;2023-03-04T05:06:36;102745.38;;;6.17;100.00
69318;BME280;56457;52.190;4.440;2023-03-04T05:07:37;102738.50;;;6.19;100.00
69318;BME280;56457;52.190;4.440;2023-03-04T05:08:38;102741.00;;;6.16;100.00
69318;BME280;56457;52.190;4.440;2023-03-04T05:09:38;102735.78;;;6.16;100.00
69318;BME280;56457;52.190;4.440;2023-03-04T05:10:38;102739.06;;;6.12;100.00
69318;BME280;56457;52.190;4.440;2023-03-04T05:11:39;102741.00;;;6.16;100.00
69318;BME280;56457;52.190;4.440;2023-03-04T05:12:39;102749.75;;;6.18;100.00
69318;BME280;56457;52.190;4.440;2023-03-04T05:13:40;102738.53;;;6.20;100.00
69318;BME280;56457;52.190;4.440;2023-03-04T05:14:40;102733.34;;;6.20;100.00
69318;BME280;56457;52.190;4.440;2023-03-04T05:15:41;102739.56;;;6.24;100.00
69318;BME280;56457;52.190;4.440;2023-03-04T05:16:41;102742.22;;;6.26;100.00
69318;BME280;56457;52.190;4.440;2023-03-04T05:17:41;102734.53;;;6.29;100.00
69318;BME280;56457;52.190;4.440;2023-03-04T05:18:41;102745.09;;;6.32;100.00
69318;BME280;56457;52.190;4.440;2023-03-04T05:19:42;102738.22;;;6.34;100.00